Time;durP1;ratioP1;P1;durP2;ratioP2;P2;SDS_P1;SDS_P2;PMS_P1;PMS_P2;Temp;Humidity;BMP_temperature;BMP_pressure;BME280_temperature;BME280_humidity;BME280_pressure;Samples;Min_cycle;Max_cycle;Signal;HPM_P1;HPM_P2
2021/08/10 00:02:16;;;;;;;323.08;225.93;;;;;;;;;;5269930;27;20044;-84
2021/08/10 00:04:45;;;;;;;329.63;225.38;;;;;;;;;;5270668;27;20812;-84
2021/08/10 00:07:13;;;;;;;310.08;224.05;;;;;;;;;;5270272;27;20067;-84
2021/08/10 00:09:42;;;;;;;313.80;222.75;;;;;;;;;;5270648;27;20361;-84
2021/08/10 00:12:10;;;;;;;313.23;221.50;;;;;;;;;;5269897;27;20045;-84
2021/08/10 00:14:39;;;;;;;315.73;220.20;;;;;;;;;;5269461;27;20018;-84
2021/08/10 00:17:07;;;;;;;311.75;218.73;;;;;;;;;;5252194;27;20104;-84
2021/08/10 00:19:36;;;;;;;265.17;237.40;;;;;;;;;;5270687;27;20128;-84
2021/08/10 00:22:04;;;;;;;256.42;228.88;;;;;;;;;;5271335;27;20363;-84
2021/08/10 00:24:33;;;;;;;258.17;229.70;;;;;;;;;;5270396;27;20043;-84
2021/08/10 00:27:02;;;;;;;262.83;234.27;;;;;;;;;;5251501;27;20380;-84
2021/08/10 00:29:30;;;;;;;267.70;239.05;;;;;;;;;;5270406;27;20059;-84
2021/08/10 00:31:59;;;;;;;262.40;234.20;;;;;;;;;;5268447;27;20548;-85
2021/08/10 00:34:28;;;;;;;311.33;226.82;;;;;;;;;;5271579;27;20409;-84
2021/08/10 00:37:04;;;;;;;307.75;228.40;;;;;;;;;;5270982;27;20015;-85
2021/08/10 00:39:34;;;;;;;308.27;222.65;;;;;;;;;;5251761;27;20026;-84
2021/08/10 00:42:03;;;;;;;302.70;217.13;;;;;;;;;;5248553;27;20033;-84
2021/08/10 00:44:31;;;;;;;312.63;216.52;;;;;;;;;;5267807;27;20017;-84
2021/08/10 00:47:00;;;;;;;312.35;222.23;;;;;;;;;;5272126;27;20040;-84
2021/08/10 00:49:29;;;;;;;308.30;212.73;;;;;;;;;;5270605;27;20033;-84
2021/08/10 00:51:58;;;;;;;310.63;219.37;;;;;;;;;;5267907;27;20035;-84
2021/08/10 00:54:28;;;;;;;319.60;222.02;;;;;;;;;;5248665;27;20029;-84
2021/08/10 00:56:57;;;;;;;308.33;220.55;;;;;;;;;;5269414;27;20195;-84
2021/08/10 00:59:27;;;;;;;260.00;232.00;;;;;;;;;;5272393;27;20088;-84
2021/08/10 01:01:56;;;;;;;259.10;231.18;;;;;;;;;;5268751;27;20033;-84
2021/08/10 01:04:24;;;;;;;254.70;226.55;;;;;;;;;;5268202;27;20022;-85
2021/08/10 01:07:12;;;;;;;245.50;218.23;;;;;;;;;;5270331;27;20032;-84
2021/08/10 01:09:52;;;;;;;242.65;211.62;;;;;;;;;;5268481;27;20530;-84
2021/08/10 01:12:24;;;;;;;298.90;200.02;;;;;;;;;;5269361;27;20018;-84
2021/08/10 01:14:58;;;;;;;310.85;215.82;;;;;;;;;;5249825;27;20286;-84
2021/08/10 01:17:30;;;;;;;310.52;216.73;;;;;;;;;;5271534;27;20055;-84
2021/08/10 01:20:12;;;;;;;297.10;213.07;;;;;;;;;;5268458;27;20460;-84
2021/08/10 01:22:44;;;;;;;300.35;210.77;;;;;;;;;;5272152;27;20021;-84
2021/08/10 01:25:48;;;;;;;300.55;209.95;;;;;;;;;;5268652;27;20067;-84
2021/08/10 01:28:37;;;;;;;300.98;215.50;;;;;;;;;;5225056;27;20617;-84
2021/08/10 01:31:06;;;;;;;299.48;213.55;;;;;;;;;;5269362;27;20034;-84
2021/08/10 01:33:42;;;;;;;311.10;216.30;;;;;;;;;;5269367;27;20017;-84
2021/08/10 01:36:11;;;;;;;247.88;213.87;;;;;;;;;;5270927;27;20430;-84
2021/08/10 01:38:42;;;;;;;237.95;213.23;;;;;;;;;;5271781;27;20022;-85
2021/08/10 01:41:12;;;;;;;244.40;218.77;;;;;;;;;;5271227;27;20067;-84
2021/08/10 01:43:45;;;;;;;245.73;220.27;;;;;;;;;;5270895;27;20022;-84
2021/08/10 01:46:17;;;;;;;252.98;225.00;;;;;;;;;;5274388;27;20537;-83
2021/08/10 01:48:45;;;;;;;255.80;227.60;;;;;;;;;;5271582;27;20403;-84
2021/08/10 01:51:15;;;;;;;306.63;211.48;;;;;;;;;;5273249;27;20038;-84
2021/08/10 01:53:44;;;;;;;308.25;219.68;;;;;;;;;;5270886;27;20047;-84
2021/08/10 01:56:12;;;;;;;319.17;213.77;;;;;;;;;;5251566;27;20112;-84
2021/08/10 01:58:41;;;;;;;299.23;202.75;;;;;;;;;;5268256;27;20376;-83
2021/08/10 02:01:10;;;;;;;302.55;203.18;;;;;;;;;;5268995;27;20495;-84
2021/08/10 02:03:41;;;;;;;310.38;213.65;;;;;;;;;;5270388;27;20033;-84
2021/08/10 02:06:11;;;;;;;311.92;216.68;;;;;;;;;;5269816;27;20017;-84
2021/08/10 02:08:41;;;;;;;309.42;216.38;;;;;;;;;;5268926;27;20030;-84
2021/08/10 02:11:10;;;;;;;307.33;212.10;;;;;;;;;;5271097;27;20025;-84
2021/08/10 02:13:39;;;;;;;261.25;235.60;;;;;;;;;;5270875;27;20038;-84
2021/08/10 02:16:09;;;;;;;254.40;229.07;;;;;;;;;;5250537;27;20735;-85
2021/08/10 02:18:39;;;;;;;245.40;220.88;;;;;;;;;;5252244;27;20367;-84
2021/08/10 02:21:11;;;;;;;259.92;235.23;;;;;;;;;;5272403;27;20018;-83
2021/08/10 02:23:41;;;;;;;259.00;234.55;;;;;;;;;;5249763;27;20056;-85
2021/08/10 02:26:10;;;;;;;260.42;235.40;;;;;;;;;;5271552;27;20036;-85
2021/08/10 02:28:40;;;;;;;251.73;227.50;;;;;;;;;;5275298;27;20293;-84
2021/08/10 02:31:09;;;;;;;236.10;212.38;;;;;;;;;;5254219;27;20089;-84
2021/08/10 02:33:38;;;;;;;245.85;221.73;;;;;;;;;;5272436;27;20040;-84
2021/08/10 02:36:09;;;;;;;226.32;203.12;;;;;;;;;;5273502;27;20145;-84
2021/08/10 02:38:38;;;;;;;253.60;228.30;;;;;;;;;;5253419;27;20827;-84
2021/08/10 02:41:06;;;;;;;237.65;213.68;;;;;;;;;;5274162;27;20071;-84
2021/08/10 02:43:36;;;;;;;247.68;222.80;;;;;;;;;;5273226;27;20314;-84
2021/08/10 02:46:04;;;;;;;266.67;239.63;;;;;;;;;;5273352;27;20041;-84
2021/08/10 02:48:33;;;;;;;242.25;216.52;;;;;;;;;;5276808;27;20062;-84
2021/08/10 02:51:01;;;;;;;294.27;207.98;;;;;;;;;;5272456;27;20017;-84
2021/08/10 02:53:30;;;;;;;281.45;252.02;;;;;;;;;;5274848;27;20056;-84
2021/08/10 02:56:10;;;;;;;268.00;240.85;;;;;;;;;;5272474;27;20071;-84
2021/08/10 02:58:45;;;;;;;251.45;224.90;;;;;;;;;;5273424;27;20009;-84
2021/08/10 03:01:16;;;;;;;266.65;239.75;;;;;;;;;;5273983;27;20057;-84
2021/08/10 03:03:47;;;;;;;269.67;242.40;;;;;;;;;;5275320;27;20017;-84
2021/08/10 03:06:17;;;;;;;297.37;211.62;;;;;;;;;;5274693;27;20388;-83
2021/08/10 03:08:47;;;;;;;300.45;211.70;;;;;;;;;;5272802;27;20021;-84
2021/08/10 07:24:59;;;;;;;4.43;0.77;;;;;;;;;;5238683;27;20367;-82
2021/08/10 07:27:28;;;;;;;2.28;0.93;;;;;;;;;;5259165;27;20123;-83
2021/08/10 07:29:56;;;;;;;4.37;1.10;;;;;;;;;;5265227;27;20080;-83
2021/08/10 07:32:24;;;;;;;4.05;0.93;;;;;;;;;;5265948;27;20059;-84
2021/08/10 07:34:58;;;;;;;1.27;0.70;;;;;;;;;;5266785;27;20026;-84
2021/08/10 07:37:27;;;;;;;1.35;0.68;;;;;;;;;;5268271;27;20014;-84
2021/08/10 07:39:58;;;;;;;1.00;0.60;;;;;;;;;;5263288;27;20037;-84
2021/08/10 08:01:19;;;;;;;2.90;0.77;;;;;;;;;;5298743;26;20473;-84
2021/08/10 08:03:48;;;;;;;3.35;0.57;;;;;;;;;;5275669;27;20536;-84
2021/08/10 08:06:16;;;;;;;2.67;0.70;;;;;;;;;;5283047;27;20032;-84
2021/08/10 08:08:45;;;;;;;2.53;0.90;;;;;;;;;;5287295;27;20063;-84
2021/08/10 08:11:14;;;;;;;4.00;0.90;;;;;;;;;;5292001;27;20032;-84
2021/08/10 08:13:42;;;;;;;2.60;0.68;;;;;;;;;;5289689;27;20057;-84
2021/08/10 08:16:12;;;;;;;1.77;0.70;;;;;;;;;;5283710;27;20039;-85
2021/08/10 08:18:43;;;;;;;2.80;0.88;;;;;;;;;;5277660;27;20049;-85
2021/08/10 08:21:11;;;;;;;1.60;0.80;;;;;;;;;;5260473;27;20052;-85
2021/08/10 08:23:40;;;;;;;2.20;0.80;;;;;;;;;;5283874;27;20098;-84
2021/08/10 08:26:09;;;;;;;3.08;0.70;;;;;;;;;;5285666;27;20040;-86
2021/08/10 08:28:38;;;;;;;5.95;0.80;;;;;;;;;;5287135;27;20092;-85
2021/08/10 08:31:07;;;;;;;2.58;0.80;;;;;;;;;;5285599;27;20031;-85
2021/08/10 08:33:36;;;;;;;2.83;0.90;;;;;;;;;;5280616;27;20416;-86
2021/08/10 08:36:05;;;;;;;2.47;0.73;;;;;;;;;;5290365;27;20036;-86
2021/08/10 08:38:34;;;;;;;8.57;1.00;;;;;;;;;;5291761;27;20471;-85
2021/08/10 08:41:05;;;;;;;3.12;0.90;;;;;;;;;;5264700;27;20083;-86
2021/08/10 08:43:34;;;;;;;2.95;0.82;;;;;;;;;;5283578;27;20026;-87
2021/08/10 08:46:03;;;;;;;5.20;0.60;;;;;;;;;;5289894;27;20373;-84
2021/08/10 08:48:33;;;;;;;3.10;0.80;;;;;;;;;;5287760;27;20160;-84
2021/08/10 08:51:02;;;;;;;3.25;0.70;;;;;;;;;;5279679;27;20005;-85
2021/08/10 08:53:32;;;;;;;2.45;0.55;;;;;;;;;;5284379;27;20060;-84
2021/08/10 08:56:01;;;;;;;2.45;0.85;;;;;;;;;;5285690;27;20033;-85
2021/08/10 08:58:29;;;;;;;2.92;0.90;;;;;;;;;;5289239;27;20491;-85
2021/08/10 09:00:58;;;;;;;1.92;0.50;;;;;;;;;;5288544;27;20043;-85
2021/08/10 09:03:27;;;;;;;2.97;0.75;;;;;;;;;;5283742;27;20112;-85
2021/08/10 09:05:56;;;;;;;2.12;0.70;;;;;;;;;;5275455;27;20075;-85
2021/08/10 09:08:26;;;;;;;1.58;0.60;;;;;;;;;;5289858;27;20033;-85
2021/08/10 09:10:56;;;;;;;8.18;0.80;;;;;;;;;;5289267;27;20051;-84
2021/08/10 09:13:27;;;;;;;3.08;1.10;;;;;;;;;;5280796;27;20441;-85
2021/08/10 09:15:59;;;;;;;2.50;0.88;;;;;;;;;;5283375;27;20029;-84
2021/08/10 09:18:28;;;;;;;3.10;0.80;;;;;;;;;;5293712;27;20471;-84
2021/08/10 09:21:00;;;;;;;2.92;0.70;;;;;;;;;;5291872;27;20029;-85
2021/08/10 09:23:49;;;;;;;2.35;0.73;;;;;;;;;;5290478;27;20212;-84
2021/08/10 09:26:19;;;;;;;2.80;0.70;;;;;;;;;;5293703;27;20078;-84
2021/08/10 09:28:49;;;;;;;2.70;0.85;;;;;;;;;;5275806;27;20018;-84
2021/08/10 09:31:37;;;;;;;2.30;0.65;;;;;;;;;;5291565;27;20022;-84
2021/08/10 09:34:06;;;;;;;2.17;0.70;;;;;;;;;;5293229;27;20036;-84
2021/08/10 09:36:36;;;;;;;2.72;0.75;;;;;;;;;;5274221;27;20023;-85
2021/08/10 09:39:04;;;;;;;2.60;0.70;;;;;;;;;;5294229;27;20040;-84
2021/08/10 09:41:34;;;;;;;4.25;0.82;;;;;;;;;;5290489;27;20033;-84
2021/08/10 09:44:13;;;;;;;3.95;0.90;;;;;;;;;;5294716;27;20441;-84
2021/08/10 09:46:46;;;;;;;2.33;0.85;;;;;;;;;;5294813;27;20063;-84
2021/08/10 09:49:17;;;;;;;3.53;0.93;;;;;;;;;;5293859;27;20013;-84
2021/08/10 09:51:50;;;;;;;5.80;0.98;;;;;;;;;;5276515;27;20034;-84
2021/08/10 09:54:21;;;;;;;2.95;1.02;;;;;;;;;;5296844;27;20010;-83
2021/08/10 09:56:50;;;;;;;3.15;0.90;;;;;;;;;;5293039;27;20061;-84
2021/08/10 09:59:23;;;;;;;3.78;0.90;;;;;;;;;;5295067;27;20061;-84
2021/08/10 10:01:55;;;;;;;3.10;0.90;;;;;;;;;;5272650;27;20397;-84
2021/08/10 10:04:26;;;;;;;4.18;0.90;;;;;;;;;;5297218;27;20021;-85
2021/08/10 10:06:56;;;;;;;4.15;0.88;;;;;;;;;;5298620;27;20022;-84
2021/08/10 10:09:26;;;;;;;3.37;1.05;;;;;;;;;;5294732;27;20059;-85
2021/08/10 10:11:55;;;;;;;2.25;0.77;;;;;;;;;;5292365;27;20426;-84
2021/08/10 10:14:26;;;;;;;7.37;1.50;;;;;;;;;;5295222;27;20052;-84
2021/08/10 10:16:56;;;;;;;3.03;0.80;;;;;;;;;;5298779;27;20030;-84
2021/08/10 10:19:24;;;;;;;2.30;0.60;;;;;;;;;;5290617;27;20437;-84
2021/08/10 10:22:03;;;;;;;1.73;0.68;;;;;;;;;;5292947;27;20017;-84
2021/08/10 10:24:35;;;;;;;1.60;0.80;;;;;;;;;;5293725;27;20022;-84
2021/08/10 10:27:05;;;;;;;4.35;0.93;;;;;;;;;;5292766;27;20009;-84
2021/08/10 10:29:34;;;;;;;3.20;0.85;;;;;;;;;;5294985;27;20021;-84
2021/08/10 10:32:02;;;;;;;3.08;0.93;;;;;;;;;;5295366;27;20021;-84
2021/08/10 10:34:31;;;;;;;1.62;0.70;;;;;;;;;;5296031;27;20063;-85
2021/08/10 10:37:02;;;;;;;2.30;0.80;;;;;;;;;;5270968;27;20061;-84
2021/08/10 10:39:31;;;;;;;2.92;0.85;;;;;;;;;;5291403;27;20052;-84
2021/08/10 10:42:00;;;;;;;2.97;0.80;;;;;;;;;;5295384;27;20470;-84
2021/08/10 10:44:41;;;;;;;3.37;1.02;;;;;;;;;;5295068;27;20032;-85
2021/08/10 10:47:39;;;;;;;8.23;1.30;;;;;;;;;;5291447;27;20239;-85
2021/08/10 10:50:07;;;;;;;2.55;1.00;;;;;;;;;;5252018;27;20026;-85
2021/08/10 11:42:16;;;;;;;3.90;0.85;;;;;;;;;;5278052;27;20536;-85
2021/08/10 11:44:45;;;;;;;4.50;1.00;;;;;;;;;;5252540;27;20088;-86
2021/08/10 11:47:14;;;;;;;3.85;0.90;;;;;;;;;;5276550;27;20021;-83
2021/08/10 11:49:42;;;;;;;1.87;0.82;;;;;;;;;;5286668;27;20099;-84
2021/08/10 11:52:11;;;;;;;2.90;0.90;;;;;;;;;;5297238;27;20049;-83
2021/08/10 11:54:39;;;;;;;2.35;0.70;;;;;;;;;;5291053;27;20027;-84
2021/08/10 11:57:12;;;;;;;4.70;0.80;;;;;;;;;;5291762;27;20025;-83
2021/08/10 11:59:41;;;;;;;2.20;0.90;;;;;;;;;;5295556;27;20030;-83
2021/08/10 12:02:09;;;;;;;1.60;0.60;;;;;;;;;;5297796;27;20018;-84
2021/08/10 12:04:39;;;;;;;2.60;0.70;;;;;;;;;;5290909;27;20032;-83
2021/08/10 12:07:07;;;;;;;3.95;0.80;;;;;;;;;;5293327;27;20403;-83
2021/08/10 12:09:38;;;;;;;3.30;0.90;;;;;;;;;;5296616;27;20013;-84
2021/08/10 12:12:11;;;;;;;2.35;0.90;;;;;;;;;;5292051;27;20029;-84
2021/08/10 12:14:41;;;;;;;3.03;1.00;;;;;;;;;;5294812;27;20025;-83
2021/08/10 12:17:11;;;;;;;3.30;0.82;;;;;;;;;;5293717;27;20084;-84
2021/08/10 12:19:45;;;;;;;3.30;0.90;;;;;;;;;;5287784;27;20028;-83
2021/08/10 12:22:18;;;;;;;4.47;0.85;;;;;;;;;;5277131;27;20052;-84
2021/08/10 12:24:47;;;;;;;1.97;0.83;;;;;;;;;;5295630;27;20025;-82
2021/08/10 12:27:17;;;;;;;2.37;0.93;;;;;;;;;;5296858;27;20448;-83
2021/08/10 12:29:46;;;;;;;3.20;1.05;;;;;;;;;;5293330;27;20053;-83
2021/08/10 12:32:21;;;;;;;1.10;0.80;;;;;;;;;;5296575;27;20434;-83
2021/08/10 12:34:50;;;;;;;1.95;0.90;;;;;;;;;;5293049;27;20021;-83
2021/08/10 12:37:28;;;;;;;5.00;1.02;;;;;;;;;;5274305;27;20040;-83
2021/08/10 12:39:57;;;;;;;3.53;1.00;;;;;;;;;;5294564;27;20054;-84
2021/08/10 12:42:26;;;;;;;3.72;1.00;;;;;;;;;;5290303;27;20066;-84
2021/08/10 12:44:55;;;;;;;3.92;1.10;;;;;;;;;;5295631;27;20339;-84
2021/08/10 12:47:31;;;;;;;2.35;0.85;;;;;;;;;;5295899;27;20025;-84
2021/08/10 12:50:01;;;;;;;1.67;0.90;;;;;;;;;;5293425;27;20451;-83
2021/08/10 12:52:45;;;;;;;1.35;0.77;;;;;;;;;;5295150;27;20090;-84
2021/08/10 12:55:13;;;;;;;;;;;;;;;;;;5293997;27;20010;-85
2021/08/10 12:57:43;;;;;;;1.75;0.90;;;;;;;;;;5294723;27;20355;-85
2021/08/10 13:00:16;;;;;;;1.98;0.93;;;;;;;;;;5290830;27;20021;-84
2021/08/10 13:02:45;;;;;;;2.67;0.90;;;;;;;;;;5296053;27;20044;-85
2021/08/10 13:05:18;;;;;;;1.85;0.73;;;;;;;;;;5290065;27;20066;-85
2021/08/10 13:08:20;;;;;;;1.95;0.75;;;;;;;;;;5292686;27;20040;-84
2021/08/10 13:10:48;;;;;;;3.30;1.00;;;;;;;;;;5236344;27;20025;-84
2021/08/10 13:13:23;;;;;;;1.98;0.82;;;;;;;;;;5291251;27;20021;-83
2021/08/10 13:15:53;;;;;;;2.35;0.90;;;;;;;;;;5292707;27;20071;-84
2021/08/10 13:18:26;;;;;;;3.35;1.10;;;;;;;;;;5286859;27;20036;-84
2021/08/10 13:21:02;;;;;;;2.30;0.77;;;;;;;;;;5287897;27;20021;-83
2021/08/10 13:23:32;;;;;;;3.30;1.12;;;;;;;;;;5291923;27;20025;-84
2021/08/10 13:26:02;;;;;;;2.37;0.80;;;;;;;;;;5293928;27;20069;-84
2021/08/10 13:28:32;;;;;;;5.50;1.00;;;;;;;;;;5291430;27;20021;-84
2021/08/10 13:31:17;;;;;;;1.77;1.00;;;;;;;;;;5286680;27;20021;-84
2021/08/10 13:34:09;;;;;;;1.92;0.88;;;;;;;;;;5294186;27;20021;-83
2021/08/10 13:36:37;;;;;;;4.15;0.90;;;;;;;;;;5291816;27;20041;-84
2021/08/10 13:39:06;;;;;;;2.55;0.70;;;;;;;;;;5293991;27;20682;-84
2021/08/10 13:41:38;;;;;;;1.23;0.80;;;;;;;;;;5295986;27;20402;-84
2021/08/10 13:44:07;;;;;;;7.70;1.00;;;;;;;;;;5297650;27;20017;-84
2021/08/10 13:46:36;;;;;;;2.05;0.93;;;;;;;;;;5275748;27;20055;-83
2021/08/10 13:49:05;;;;;;;1.60;0.80;;;;;;;;;;5296134;27;20039;-83
2021/08/10 13:51:34;;;;;;;1.77;0.75;;;;;;;;;;5274841;27;20523;-83
2021/08/10 13:54:03;;;;;;;2.53;1.00;;;;;;;;;;5294157;27;20093;-84
2021/08/10 13:56:31;;;;;;;3.47;0.93;;;;;;;;;;5292995;27;20427;-84
2021/08/10 13:59:01;;;;;;;3.85;1.08;;;;;;;;;;5293493;27;20044;-84
2021/08/10 14:04:05;;;;;;;2.60;1.23;;;;;;;;;;5296408;27;20070;-83
2021/08/10 14:06:37;;;;;;;5.00;1.00;;;;;;;;;;5296447;27;20020;-85
2021/08/10 14:09:06;;;;;;;1.20;0.77;;;;;;;;;;5293832;27;20026;-83
2021/08/10 14:11:34;;;;;;;1.50;0.70;;;;;;;;;;5291257;27;20017;-84
2021/08/10 14:14:03;;;;;;;2.53;0.77;;;;;;;;;;5275203;27;20039;-84
2021/08/10 14:16:32;;;;;;;5.07;1.40;;;;;;;;;;5297645;27;20053;-85
2021/08/10 14:19:00;;;;;;;2.50;1.00;;;;;;;;;;5289340;27;20438;-84
2021/08/10 14:21:28;;;;;;;2.35;0.98;;;;;;;;;;5290658;27;20532;-84
2021/08/10 14:23:58;;;;;;;3.45;0.98;;;;;;;;;;5293205;27;20078;-84
2021/08/10 14:26:26;;;;;;;1.35;0.80;;;;;;;;;;5293304;27;20436;-83
2021/08/10 14:28:54;;;;;;;2.85;1.20;;;;;;;;;;5288824;27;20028;-84
2021/08/10 14:31:23;;;;;;;2.62;0.88;;;;;;;;;;5285425;27;20060;-83
2021/08/10 14:33:51;;;;;;;2.37;0.85;;;;;;;;;;5289791;27;20006;-85
2021/08/10 14:36:20;;;;;;;2.53;1.05;;;;;;;;;;5294733;27;20043;-83
2021/08/10 14:38:49;;;;;;;2.80;0.80;;;;;;;;;;5292955;27;20351;-83
2021/08/10 14:41:17;;;;;;;8.23;1.58;;;;;;;;;;5292850;27;20029;-84
2021/08/10 14:43:45;;;;;;;3.65;1.02;;;;;;;;;;5296721;27;20026;-83
2021/08/10 14:46:14;;;;;;;1.98;0.90;;;;;;;;;;5295606;27;20071;-83
2021/08/10 14:48:42;;;;;;;2.87;1.00;;;;;;;;;;5292373;27;20057;-83
2021/08/10 14:51:10;;;;;;;2.97;0.95;;;;;;;;;;5294487;27;20026;-84
2021/08/10 14:53:39;;;;;;;2.37;1.00;;;;;;;;;;5292277;27;20029;-83
2021/08/10 14:56:08;;;;;;;3.42;1.00;;;;;;;;;;5293775;27;20064;-85
2021/08/10 14:58:36;;;;;;;2.90;0.90;;;;;;;;;;5273536;27;20039;-83
2021/08/10 15:01:05;;;;;;;1.98;0.90;;;;;;;;;;5294582;27;20173;-83
2021/08/10 15:03:34;;;;;;;2.72;0.80;;;;;;;;;;5294333;27;20024;-83
2021/08/10 15:06:02;;;;;;;4.05;1.20;;;;;;;;;;5296410;27;20029;-83
2021/08/10 15:08:31;;;;;;;2.10;1.00;;;;;;;;;;5298622;27;20085;-85
2021/08/10 15:10:59;;;;;;;5.53;1.37;;;;;;;;;;5294487;27;20059;-84
2021/08/10 15:13:28;;;;;;;1.98;0.73;;;;;;;;;;5294346;27;20027;-83
2021/08/10 15:15:56;;;;;;;3.55;1.08;;;;;;;;;;5294012;27;20030;-84
2021/08/10 15:18:25;;;;;;;6.22;1.00;;;;;;;;;;5294544;27;20017;-83
2021/08/10 15:20:53;;;;;;;4.40;1.10;;;;;;;;;;5296662;27;20079;-84
2021/08/10 15:23:22;;;;;;;3.17;1.02;;;;;;;;;;5292521;27;20134;-84
2021/08/10 15:25:51;;;;;;;3.30;1.00;;;;;;;;;;5293085;27;20036;-85
2021/08/10 15:28:20;;;;;;;3.55;0.93;;;;;;;;;;5293310;27;20013;-85
2021/08/10 15:30:48;;;;;;;4.65;0.88;;;;;;;;;;5295630;27;20041;-83
2021/08/10 15:33:17;;;;;;;4.18;0.80;;;;;;;;;;5292684;27;20047;-83
2021/08/10 15:35:48;;;;;;;3.05;0.88;;;;;;;;;;5296622;27;20017;-83
2021/08/10 15:38:16;;;;;;;2.62;0.82;;;;;;;;;;5273416;27;20029;-84
2021/08/10 15:40:57;;;;;;;2.60;1.00;;;;;;;;;;5293411;27;20374;-84
2021/08/10 15:43:26;;;;;;;2.37;0.90;;;;;;;;;;5293808;27;20048;-84
2021/08/10 15:45:54;;;;;;;3.42;1.10;;;;;;;;;;5296504;27;20022;-86
2021/08/10 15:48:23;;;;;;;2.87;1.00;;;;;;;;;;5294873;27;20108;-84
2021/08/10 15:50:51;;;;;;;2.42;0.80;;;;;;;;;;5292886;27;20371;-83
2021/08/10 15:53:19;;;;;;;3.05;1.02;;;;;;;;;;5295372;27;20010;-83
2021/08/10 15:55:48;;;;;;;2.45;0.90;;;;;;;;;;5295188;27;20033;-83
2021/08/10 15:58:16;;;;;;;1.80;0.70;;;;;;;;;;5297944;27;20029;-84
2021/08/10 16:00:45;;;;;;;3.78;0.90;;;;;;;;;;5293334;27;20051;-84
2021/08/10 16:03:14;;;;;;;6.40;1.23;;;;;;;;;;5293070;27;20044;-82
2021/08/10 16:05:44;;;;;;;2.85;0.90;;;;;;;;;;5293262;27;20075;-83
2021/08/10 16:08:13;;;;;;;7.32;2.45;;;;;;;;;;5292844;27;20344;-84
2021/08/10 16:10:43;;;;;;;2.08;0.80;;;;;;;;;;5274181;27;20029;-85
2021/08/10 16:13:12;;;;;;;6.97;0.98;;;;;;;;;;5294486;27;20560;-82
2021/08/10 16:15:45;;;;;;;4.05;1.12;;;;;;;;;;5291324;27;20022;-83
2021/08/10 16:18:14;;;;;;;3.15;1.10;;;;;;;;;;5268524;27;20053;-84
2021/08/10 16:20:43;;;;;;;2.70;0.98;;;;;;;;;;5292445;27;20083;-83
2021/08/10 16:23:11;;;;;;;3.53;0.80;;;;;;;;;;5291263;27;20437;-82
2021/08/10 16:25:39;;;;;;;2.08;0.60;;;;;;;;;;5288382;27;20021;-82
2021/08/10 16:28:08;;;;;;;5.70;1.25;;;;;;;;;;5268241;27;20408;-83
2021/08/10 16:30:37;;;;;;;4.95;1.00;;;;;;;;;;5289953;27;20348;-82
2021/08/10 16:33:05;;;;;;;3.20;2.87;;;;;;;;;;5270775;27;20349;-83
2021/08/10 16:35:34;;;;;;;6.03;5.60;;;;;;;;;;5291453;27;20073;-84
2021/08/10 16:38:03;;;;;;;3.37;0.90;;;;;;;;;;5289458;27;20065;-83
2021/08/10 16:40:31;;;;;;;3.35;0.90;;;;;;;;;;5291839;27;20029;-83
2021/08/10 16:43:00;;;;;;;2.47;0.77;;;;;;;;;;5292692;27;20022;-83
2021/08/10 16:45:28;;;;;;;6.32;1.17;;;;;;;;;;5284185;27;20298;-83
2021/08/10 16:47:57;;;;;;;5.80;3.05;;;;;;;;;;5287293;27;20071;-83
2021/08/10 16:50:26;;;;;;;4.40;4.05;;;;;;;;;;5288245;27;20033;-83
2021/08/10 16:52:55;;;;;;;5.12;4.15;;;;;;;;;;5289153;27;20092;-83
2021/08/10 16:55:23;;;;;;;6.50;4.70;;;;;;;;;;5288929;27;20074;-83
2021/08/10 16:57:52;;;;;;;10.82;4.80;;;;;;;;;;5287109;27;20025;-84
2021/08/10 17:00:21;;;;;;;5.72;5.22;;;;;;;;;;5286587;27;20031;-82
2021/08/10 17:02:50;;;;;;;6.32;4.72;;;;;;;;;;5287328;27;20037;-83
2021/08/10 17:05:19;;;;;;;6.35;5.07;;;;;;;;;;5287372;27;20056;-83
2021/08/10 17:07:47;;;;;;;5.78;4.90;;;;;;;;;;5291844;27;20018;-84
2021/08/10 17:10:16;;;;;;;8.15;7.30;;;;;;;;;;5291017;27;20017;-83
2021/08/10 17:12:45;;;;;;;7.93;7.30;;;;;;;;;;5293261;27;20026;-84
2021/08/10 17:15:13;;;;;;;7.60;7.00;;;;;;;;;;5288261;27;20048;-83
2021/08/10 17:17:42;;;;;;;4.78;4.55;;;;;;;;;;5291041;27;20040;-83
2021/08/10 17:20:11;;;;;;;5.25;1.33;;;;;;;;;;5292165;27;20439;-84
2021/08/10 17:22:39;;;;;;;4.85;1.65;;;;;;;;;;5292975;27;20017;-83
2021/08/10 17:25:07;;;;;;;4.55;1.23;;;;;;;;;;5287818;27;20041;-84
2021/08/10 17:27:36;;;;;;;3.05;1.80;;;;;;;;;;5289630;27;20029;-83
2021/08/10 17:30:05;;;;;;;9.00;3.20;;;;;;;;;;5291562;27;20305;-83
2021/08/10 17:32:38;;;;;;;5.95;3.00;;;;;;;;;;5285843;27;20071;-84
2021/08/10 17:35:07;;;;;;;11.40;3.35;;;;;;;;;;5265460;27;20038;-85
2021/08/10 17:37:37;;;;;;;3.83;2.20;;;;;;;;;;5283324;27;20073;-84
2021/08/10 17:40:05;;;;;;;4.82;2.72;;;;;;;;;;5286642;27;20059;-83
2021/08/10 17:42:34;;;;;;;5.45;3.22;;;;;;;;;;5266772;27;20056;-84
2021/08/10 17:45:03;;;;;;;10.05;3.37;;;;;;;;;;5284368;27;20021;-83
2021/08/10 17:47:32;;;;;;;8.20;3.85;;;;;;;;;;5286865;27;20025;-84
2021/08/10 17:50:01;;;;;;;5.32;3.33;;;;;;;;;;5287670;27;20052;-84
2021/08/10 17:52:29;;;;;;;4.15;3.50;;;;;;;;;;5288181;27;20021;-84
2021/08/10 17:54:57;;;;;;;9.98;3.17;;;;;;;;;;5284099;27;20032;-84
2021/08/10 17:57:27;;;;;;;18.87;2.90;;;;;;;;;;5284474;27;20021;-84
2021/08/10 17:59:55;;;;;;;4.12;1.27;;;;;;;;;;5287634;27;20525;-83
2021/08/10 18:02:23;;;;;;;4.75;1.60;;;;;;;;;;5286724;27;20021;-84
2021/08/10 18:04:52;;;;;;;8.77;5.32;;;;;;;;;;5288212;27;20051;-85
2021/08/10 18:07:20;;;;;;;5.45;4.95;;;;;;;;;;5287139;27;20254;-84
2021/08/10 18:09:49;;;;;;;5.70;4.87;;;;;;;;;;5287990;27;20528;-83
2021/08/10 18:12:17;;;;;;;4.78;2.00;;;;;;;;;;5283303;27;20059;-84
2021/08/10 18:14:46;;;;;;;3.70;3.40;;;;;;;;;;5266570;27;20049;-84
2021/08/10 18:17:14;;;;;;;5.40;4.37;;;;;;;;;;5286214;27;20086;-84
2021/08/10 18:19:43;;;;;;;5.97;4.45;;;;;;;;;;5285167;27;20029;-84
2021/08/10 18:22:11;;;;;;;8.32;5.55;;;;;;;;;;5285494;27;20062;-86
2021/08/10 18:24:41;;;;;;;6.40;3.87;;;;;;;;;;5283840;27;20044;-84
2021/08/10 18:27:10;;;;;;;5.97;5.32;;;;;;;;;;5287517;27;20029;-85
2021/08/10 18:29:38;;;;;;;7.47;6.87;;;;;;;;;;5287625;27;20053;-84
2021/08/10 18:32:07;;;;;;;7.85;7.07;;;;;;;;;;5287543;27;20029;-83
2021/08/10 18:34:36;;;;;;;7.60;6.90;;;;;;;;;;5282278;27;20466;-85
2021/08/10 18:37:04;;;;;;;8.10;6.65;;;;;;;;;;5284844;27;20066;-83
2021/08/10 18:39:42;;;;;;;6.57;5.78;;;;;;;;;;5268800;27;20415;-84
2021/08/10 18:42:10;;;;;;;5.57;4.10;;;;;;;;;;5264083;27;20029;-83
2021/08/10 18:44:39;;;;;;;7.28;6.78;;;;;;;;;;5287265;27;20010;-84
2021/08/10 18:47:09;;;;;;;8.13;7.57;;;;;;;;;;5288040;27;20075;-83
2021/08/10 18:49:37;;;;;;;6.53;5.93;;;;;;;;;;5286147;27;20021;-82
2021/08/10 18:52:08;;;;;;;44.30;42.03;;;;;;;;;;5267097;27;20037;-83
2021/08/10 18:54:37;;;;;;;70.28;66.68;;;;;;;;;;5267232;27;20041;-83
2021/08/10 18:57:06;;;;;;;142.90;135.27;;;;;;;;;;5286813;27;20064;-83
2021/08/10 18:59:34;;;;;;;186.52;177.62;;;;;;;;;;5285082;27;20047;-84
2021/08/10 19:02:03;;;;;;;109.87;104.68;;;;;;;;;;5285392;27;20074;-84
2021/08/10 19:04:32;;;;;;;121.85;115.10;;;;;;;;;;5284324;27;20325;-83
2021/08/10 19:07:01;;;;;;;133.18;125.57;;;;;;;;;;5286819;27;20411;-83
2021/08/10 19:09:30;;;;;;;148.25;140.30;;;;;;;;;;5284592;27;20040;-83
2021/08/10 19:11:58;;;;;;;156.30;148.50;;;;;;;;;;5290487;27;20395;-83
2021/08/10 19:14:27;;;;;;;108.50;103.53;;;;;;;;;;5285439;27;20416;-83
2021/08/10 19:16:56;;;;;;;235.40;223.60;;;;;;;;;;5286574;27;20052;-83
2021/08/10 19:19:24;;;;;;;244.25;232.23;;;;;;;;;;5287961;27;20242;-84
2021/08/10 19:21:52;;;;;;;255.48;242.57;;;;;;;;;;5288592;27;20099;-84
2021/08/10 19:24:21;;;;;;;237.93;225.77;;;;;;;;;;5288157;27;20729;-83
2021/08/10 19:26:49;;;;;;;290.40;275.23;;;;;;;;;;5286035;27;20021;-83
2021/08/10 19:29:18;;;;;;;393.63;370.15;;;;;;;;;;5284706;27;20025;-83
2021/08/10 19:31:46;;;;;;;416.20;390.10;;;;;;;;;;5287078;27;20112;-84
2021/08/10 19:34:16;;;;;;;446.08;416.77;;;;;;;;;;5287239;27;20053;-83
2021/08/10 19:36:45;;;;;;;349.67;325.48;;;;;;;;;;5289536;27;20036;-83
2021/08/10 19:39:13;;;;;;;338.23;312.90;;;;;;;;;;5290085;27;20387;-84
2021/08/10 19:41:42;;;;;;;327.00;303.17;;;;;;;;;;5289116;27;20029;-83
2021/08/10 19:44:10;;;;;;;294.62;273.25;;;;;;;;;;5290852;27;20282;-84
2021/08/10 19:46:39;;;;;;;258.90;239.20;;;;;;;;;;5285989;27;20450;-84
2021/08/10 19:49:08;;;;;;;243.25;222.82;;;;;;;;;;5289859;27;20071;-84
2021/08/10 19:51:40;;;;;;;240.40;219.27;;;;;;;;;;5287577;27;20064;-83
2021/08/10 19:54:11;;;;;;;220.30;202.60;;;;;;;;;;5287194;27;20119;-83
2021/08/10 19:56:39;;;;;;;216.60;178.07;;;;;;;;;;5286368;27;20021;-83
2021/08/10 19:59:07;;;;;;;237.80;185.82;;;;;;;;;;5289098;27;20304;-83
2021/08/10 20:01:36;;;;;;;244.75;218.02;;;;;;;;;;5286664;27;20428;-84
2021/08/10 20:04:05;;;;;;;228.12;195.18;;;;;;;;;;5284655;27;20341;-83
2021/08/10 20:06:34;;;;;;;254.82;187.02;;;;;;;;;;5285438;27;20047;-83
2021/08/10 20:09:02;;;;;;;303.40;220.25;;;;;;;;;;5287287;27;20055;-83
2021/08/10 20:11:31;;;;;;;291.75;198.25;;;;;;;;;;5289977;27;20021;-83